RKJJ/KWJ METAR and TAF weather

Enter ICAO airport designator
Station Type Date Time Source
RKJJ METAR 2020/08/11 01:00 UTC NOAA

RKJJ 110100Z 24009KT 9999 BKN017 BKN030 28/27 Q1010 RMK CIG017 SLP105 8/700 9/700 WR24P


Station Type Date Time Source
RKJJ Decoded METAR 2020/08/11 01:00 UTC NOAA

Kwangju Ab, Korea, South (RKJJ) 35-07N 126-49E 13M
Aug 10, 2020 - 09:00 PM EDT / 2020.08.11 0100 UTC
Wind: from the WSW (240 degrees) at 10 MPH (9 KT):0
Visibility: greater than 7 mile(s):0
Sky conditions: mostly cloudy
Temperature: 82 F (28 C)
Dew Point: 80 F (27 C)
Relative Humidity: 94%
Pressure (altimeter): 29.83 in. Hg (1010 hPa)
ob: RKJJ 110100Z 24009KT 9999 BKN017 BKN030 28/27 Q1010 RMK CIG017 SLP105 8/700 9/700 WR24P
cycle: 1

Station Type Date Time Source
RKJJ TAF 2020/08/10 19:58 UTC NOAA

TAF
AMD RKJJ 101920Z 1019/1124 18006KT 9999 BKN020 BKN030 TN25/1021Z TX31/1106Z
BECMG 1023/1024 18010KT 9000 -RA BKN015 OVC030
BECMG 1107/1108 21008KT 9999 NSW SCT015 BKN030
BECMG 1117/1118 21006KT 9000 -RA BKN015 OVC030

Example: see airport list